createdAt,value
2023-02-28T00:00:36.926Z,98398.19
2023-02-28T00:03:03.927Z,98404.84
2023-02-28T00:05:30.568Z,98399.16
2023-02-28T00:07:57.296Z,98392.63
2023-02-28T00:10:25.345Z,98398.97
2023-02-28T00:12:52.776Z,98396.94
2023-02-28T00:15:19.678Z,98399.66
2023-02-28T00:17:46.836Z,98393.19
2023-02-28T00:20:14.407Z,98390.47
2023-02-28T00:22:42.304Z,98399.72
2023-02-28T00:25:10.204Z,98389.44
2023-02-28T00:27:37.182Z,98397.34
2023-02-28T00:30:05.539Z,98402.50
2023-02-28T00:32:32.019Z,98396.59
2023-02-28T00:34:58.451Z,98403.44
2023-02-28T00:37:24.922Z,98403.56
2023-02-28T00:39:51.369Z,98400.84
2023-02-28T00:42:17.908Z,98403.44
2023-02-28T00:44:44.365Z,98396.59
2023-02-28T00:47:11.825Z,98395.34
2023-02-28T00:49:38.496Z,98397.63
2023-02-28T00:52:05.056Z,98399.44
2023-02-28T00:54:31.504Z,98401.00
2023-02-28T00:56:58.080Z,98397.25
2023-02-28T00:59:25.253Z,98395.53
2023-02-28T01:01:51.754Z,98395.63
2023-02-28T01:04:18.447Z,98387.44
2023-02-28T01:06:44.992Z,98398.97
2023-02-28T01:09:12.235Z,98396.16
2023-02-28T01:11:38.777Z,98390.41
2023-02-28T01:14:05.439Z,98386.47
2023-02-28T01:16:31.986Z,98395.22
2023-02-28T01:18:58.721Z,98393.19
2023-02-28T01:21:25.172Z,98390.78
2023-02-28T01:23:51.664Z,98391.50
2023-02-28T01:26:19.762Z,98390.72
2023-02-28T01:28:46.380Z,98388.06
2023-02-28T01:31:13.238Z,98389.22
2023-02-28T01:33:40.268Z,98388.91
2023-02-28T01:36:08.690Z,98385.88
2023-02-28T01:38:36.048Z,98389.28
2023-02-28T01:41:02.754Z,98387.88
2023-02-28T01:43:33.916Z,98388.25
2023-02-28T01:46:00.408Z,98388.84
2023-02-28T01:48:28.744Z,98387.75
2023-02-28T01:50:57.108Z,98393.66
2023-02-28T01:53:27.534Z,98390.69
2023-02-28T01:55:54.880Z,98401.56
2023-02-28T01:58:21.665Z,98389.97
2023-02-28T02:00:48.894Z,98394.72
2023-02-28T02:03:19.881Z,98392.41
2023-02-28T02:05:49.295Z,98393.44
2023-02-28T02:08:20.824Z,98388.44
2023-02-28T02:10:51.215Z,98391.91
2023-02-28T02:13:30.001Z,98395.91
2023-02-28T02:16:02.652Z,98391.97
2023-02-28T02:18:31.918Z,98399.44
2023-02-28T02:21:17.349Z,98397.41
2023-02-28T02:23:49.844Z,98398.22
2023-02-28T02:26:31.696Z,98388.81
2023-02-28T02:29:04.271Z,98389.16
2023-02-28T02:31:49.531Z,98391.72
2023-02-28T02:34:42.482Z,98392.19
2023-02-28T02:37:29.917Z,98390.22
2023-02-28T02:40:04.647Z,98386.97
2023-02-28T02:42:41.704Z,98388.38
2023-02-28T02:45:11.388Z,98391.78
2023-02-28T02:47:38.791Z,98389.59
2023-02-28T02:50:12.862Z,98392.56
2023-02-28T02:52:43.146Z,98387.75
2023-02-28T02:55:12.499Z,98393.28
2023-02-28T02:57:46.962Z,98399.28
2023-02-28T03:00:15.527Z,98388.06
2023-02-28T03:02:42.171Z,98397.41
2023-02-28T03:05:15.138Z,98402.81
2023-02-28T03:07:41.718Z,98395.38
2023-02-28T03:10:27.063Z,98399.63
2023-02-28T03:13:01.477Z,98393.09
2023-02-28T03:15:33.795Z,98398.41
2023-02-28T03:18:11.172Z,98400.09
2023-02-28T03:20:46.238Z,98391.84
2023-02-28T03:23:25.332Z,98393.00
2023-02-28T03:26:03.061Z,98392.00
2023-02-28T03:28:29.759Z,98398.31
2023-02-28T03:31:13.601Z,98401.44
2023-02-28T03:33:43.048Z,98402.19
2023-02-28T03:36:13.457Z,98397.91
2023-02-28T03:38:46.082Z,98392.56
2023-02-28T03:41:22.042Z,98407.25
2023-02-28T03:43:54.550Z,98401.50
2023-02-28T03:46:24.022Z,98406.28
2023-02-28T03:48:54.636Z,98403.91
2023-02-28T03:51:23.945Z,98402.38
2023-02-28T03:53:55.498Z,98407.19
2023-02-28T03:56:25.650Z,98402.50
2023-02-28T03:59:10.733Z,98406.91
2023-02-28T04:01:42.435Z,98409.69
2023-02-28T04:04:13.088Z,98405.91
2023-02-28T04:06:39.952Z,98407.88
2023-02-28T04:09:07.302Z,98406.31
2023-02-28T04:11:41.333Z,98405.50
2023-02-28T04:14:08.997Z,98400.66
2023-02-28T04:16:37.936Z,98409.34
2023-02-28T04:19:06.246Z,98418.63
2023-02-28T04:21:34.270Z,98420.53
2023-02-28T04:24:01.758Z,98427.84
2023-02-28T04:26:35.382Z,98425.44
2023-02-28T04:29:02.446Z,98427.97
2023-02-28T04:31:29.579Z,98427.53
2023-02-28T04:33:56.256Z,98430.31
2023-02-28T04:36:24.167Z,98430.75
2023-02-28T04:38:50.957Z,98433.34
2023-02-28T04:41:17.827Z,98434.41
2023-02-28T04:43:44.453Z,98439.78
2023-02-28T04:46:11.454Z,98431.88
2023-02-28T04:48:38.829Z,98432.00
2023-02-28T04:51:07.425Z,98430.66
2023-02-28T04:53:34.059Z,98441.13
2023-02-28T04:56:00.511Z,98435.50
2023-02-28T04:58:27.049Z,98431.59
2023-02-28T05:00:54.010Z,98427.94
2023-02-28T05:03:21.779Z,98428.66
2023-02-28T05:05:48.436Z,98426.56
2023-02-28T05:08:14.937Z,98429.53
2023-02-28T05:10:41.422Z,98421.06
2023-02-28T05:13:07.851Z,98426.38
2023-02-28T05:15:35.727Z,98419.41
2023-02-28T05:18:02.418Z,98428.94
2023-02-28T05:20:28.908Z,98424.34
2023-02-28T05:22:55.375Z,98424.97
2023-02-28T05:25:25.318Z,98424.41
2023-02-28T05:27:51.909Z,98422.47
2023-02-28T05:30:18.505Z,98433.09
2023-02-28T05:32:44.985Z,98432.25
2023-02-28T05:35:12.382Z,98431.63
2023-02-28T05:37:39.702Z,98434.59
2023-02-28T05:40:12.664Z,98446.13
2023-02-28T05:42:39.196Z,98442.06
2023-02-28T05:45:06.005Z,98443.84
2023-02-28T05:47:32.510Z,98439.88
2023-02-28T05:49:58.975Z,98440.44
2023-02-28T05:52:25.463Z,98451.91
2023-02-28T05:54:51.946Z,98455.38
2023-02-28T05:57:24.314Z,98456.13
2023-02-28T05:59:51.464Z,98454.09
2023-02-28T06:02:18.517Z,98460.69
2023-02-28T06:04:45.337Z,98458.53
2023-02-28T06:07:12.208Z,98462.84
2023-02-28T06:09:38.957Z,98465.13
2023-02-28T06:12:10.759Z,98470.50
2023-02-28T06:14:37.332Z,98465.03
2023-02-28T06:17:04.607Z,98473.47
2023-02-28T06:19:31.528Z,98476.44
2023-02-28T06:21:58.261Z,98467.44
2023-02-28T06:24:25.829Z,98473.78
2023-02-28T06:26:52.293Z,98487.06
2023-02-28T06:29:19.361Z,98485.03
2023-02-28T06:31:46.433Z,98488.91
2023-02-28T06:34:13.453Z,98489.16
2023-02-28T06:36:40.577Z,98496.13
2023-02-28T06:39:07.011Z,98496.13
2023-02-28T06:41:53.643Z,98492.84
2023-02-28T06:44:21.054Z,98498.16
2023-02-28T06:46:47.670Z,98503.91
2023-02-28T06:49:14.238Z,98502.84
2023-02-28T06:51:42.572Z,98511.44
2023-02-28T06:54:10.617Z,98512.53
2023-02-28T06:56:37.146Z,98516.28
2023-02-28T06:59:04.390Z,98515.19
2023-02-28T07:01:32.937Z,98516.28
2023-02-28T07:04:01.022Z,98517.13
2023-02-28T07:06:28.214Z,98520.25
2023-02-28T07:08:55.094Z,98514.72
2023-02-28T07:11:23.487Z,98515.81
2023-02-28T07:13:51.854Z,98515.13
2023-02-28T07:16:18.533Z,98521.00
2023-02-28T07:18:45.507Z,98516.28
2023-02-28T07:21:12.106Z,98525.81
2023-02-28T07:23:39.472Z,98519.63
2023-02-28T07:26:06.948Z,98523.34
2023-02-28T07:28:33.427Z,98517.91
2023-02-28T07:31:07.157Z,98523.97
2023-02-28T07:33:34.938Z,98528.59
2023-02-28T07:36:05.451Z,98523.13
2023-02-28T07:38:34.197Z,98530.19
2023-02-28T07:41:00.666Z,98532.22
2023-02-28T07:43:27.167Z,98534.09
2023-02-28T07:45:53.682Z,98541.44
2023-02-28T07:48:20.158Z,98537.22
2023-02-28T07:50:56.330Z,98530.75
2023-02-28T07:53:23.306Z,98534.94
2023-02-28T07:55:49.991Z,98546.13
2023-02-28T07:58:16.493Z,98536.44
2023-02-28T08:00:43.024Z,98547.22
2023-02-28T08:03:13.967Z,98542.22
2023-02-28T08:05:41.193Z,98537.63
2023-02-28T08:08:08.164Z,98545.03
2023-02-28T08:10:34.684Z,98553.78
2023-02-28T08:13:01.181Z,98547.06
2023-02-28T08:15:27.797Z,98552.91
2023-02-28T08:17:54.537Z,98551.28
2023-02-28T08:20:21.019Z,98547.84
2023-02-28T08:22:47.797Z,98549.75
2023-02-28T08:25:14.297Z,98553.16
2023-02-28T08:27:40.772Z,98549.09
2023-02-28T08:30:07.602Z,98553.78
2023-02-28T08:32:34.386Z,98560.06
2023-02-28T08:35:01.100Z,98557.50
2023-02-28T08:37:27.686Z,98551.91
2023-02-28T08:39:56.405Z,98555.09
2023-02-28T08:42:23.462Z,98561.28
2023-02-28T08:44:49.924Z,98548.34
2023-02-28T08:47:16.436Z,98553.66
2023-02-28T08:49:42.946Z,98552.69
2023-02-28T08:52:09.621Z,98556.78
2023-02-28T08:54:36.374Z,98560.59
2023-02-28T08:57:03.409Z,98555.50
2023-02-28T08:59:30.044Z,98559.91
2023-02-28T09:01:56.521Z,98556.94
2023-02-28T09:04:25.174Z,98555.00
2023-02-28T09:06:52.140Z,98555.59
2023-02-28T09:09:18.588Z,98560.81
2023-02-28T09:11:45.075Z,98557.41
2023-02-28T09:14:11.664Z,98558.25
2023-02-28T09:16:38.417Z,98555.50
2023-02-28T09:19:05.035Z,98562.97
2023-02-28T09:21:31.723Z,98560.19
2023-02-28T09:23:58.362Z,98565.09
2023-02-28T09:26:26.661Z,98567.03
2023-02-28T09:28:53.510Z,98565.59
2023-02-28T09:31:21.954Z,98565.59
2023-02-28T09:33:52.380Z,98573.97
2023-02-28T09:36:19.467Z,98564.38
2023-02-28T09:38:48.753Z,98571.88
2023-02-28T09:41:20.893Z,98574.22
2023-02-28T09:43:50.349Z,98568.25
2023-02-28T09:46:32.735Z,98567.78
2023-02-28T09:49:01.608Z,98556.75
2023-02-28T09:51:43.456Z,98567.72
2023-02-28T09:54:19.896Z,98564.31
2023-02-28T09:56:53.235Z,98563.84
2023-02-28T09:59:35.055Z,98559.06
2023-02-28T10:02:10.313Z,98564.50
2023-02-28T10:04:46.799Z,98561.75
2023-02-28T10:07:32.203Z,98566.69
2023-02-28T10:10:00.171Z,98563.59
2023-02-28T10:12:27.812Z,98564.16
2023-02-28T10:14:56.143Z,98561.66
2023-02-28T10:17:27.825Z,98556.41
2023-02-28T10:20:02.248Z,98548.72
2023-02-28T10:22:37.068Z,98560.41
2023-02-28T10:25:16.490Z,98552.66
2023-02-28T10:27:43.028Z,98557.34
2023-02-28T10:30:14.716Z,98557.94
2023-02-28T10:32:43.408Z,98550.63
2023-02-28T10:35:09.864Z,98550.09
2023-02-28T10:37:47.047Z,98547.34
2023-02-28T10:40:19.338Z,98547.94
2023-02-28T10:42:59.334Z,98548.22
2023-02-28T10:45:26.489Z,98545.53
2023-02-28T10:47:56.425Z,98537.50
2023-02-28T10:50:29.254Z,98544.06
2023-02-28T10:52:55.950Z,98542.50
2023-02-28T10:55:26.252Z,98533.16
2023-02-28T10:57:52.937Z,98540.16
2023-02-28T11:00:22.605Z,98531.28
2023-02-28T11:02:49.762Z,98535.09
2023-02-28T11:05:30.026Z,98529.19
2023-02-28T11:08:12.354Z,98534.97
2023-02-28T11:10:39.383Z,98527.13
2023-02-28T11:13:06.517Z,98520.22
2023-02-28T11:15:34.230Z,98509.56
2023-02-28T11:18:09.747Z,98508.66
2023-02-28T11:20:36.483Z,98521.31
2023-02-28T11:23:05.172Z,98502.66
2023-02-28T11:25:33.824Z,98500.50
2023-02-28T11:28:07.215Z,98499.72
2023-02-28T11:30:38.784Z,98496.72
2023-02-28T11:33:23.646Z,98491.56
2023-02-28T11:35:50.866Z,98498.72
2023-02-28T11:38:17.534Z,98492.50
2023-02-28T11:40:53.101Z,98483.16
2023-02-28T11:43:25.593Z,98484.50
2023-02-28T11:46:11.135Z,98480.19
2023-02-28T11:48:40.635Z,98485.13
2023-02-28T11:51:22.860Z,98481.06
2023-02-28T11:53:54.254Z,98482.41
2023-02-28T11:56:26.706Z,98479.09
2023-02-28T11:58:53.120Z,98474.34
2023-02-28T12:01:19.579Z,98476.75
2023-02-28T12:03:46.028Z,98478.94
2023-02-28T12:06:12.505Z,98477.72
2023-02-28T12:08:42.017Z,98468.72
2023-02-28T12:11:11.563Z,98463.09
2023-02-28T12:13:49.224Z,98465.94
2023-02-28T12:16:37.195Z,98470.00
2023-02-28T12:19:33.026Z,98464.66
2023-02-28T12:21:59.432Z,98458.13
2023-02-28T12:24:44.670Z,98462.22
2023-02-28T12:27:14.283Z,98457.69
2023-02-28T12:30:10.165Z,98452.00
2023-02-28T12:32:40.510Z,98450.25
2023-02-28T12:35:10.097Z,98449.66
2023-02-28T12:37:46.771Z,98453.97
2023-02-28T12:40:24.161Z,98444.50
2023-02-28T12:42:52.628Z,98449.94
2023-02-28T12:45:27.152Z,98442.75
2023-02-28T12:47:58.546Z,98447.78
2023-02-28T12:50:26.641Z,98442.50
2023-02-28T12:52:58.132Z,98441.47
2023-02-28T12:55:30.827Z,98435.69
2023-02-28T12:58:06.488Z,98431.84
2023-02-28T13:00:36.130Z,98433.03
2023-02-28T13:03:22.801Z,98426.50
2023-02-28T13:06:08.070Z,98423.00
2023-02-28T13:08:39.051Z,98431.50
2023-02-28T13:11:13.116Z,98428.06
2023-02-28T13:13:46.448Z,98430.53
2023-02-28T13:16:13.088Z,98421.84
2023-02-28T13:18:47.225Z,98420.75
2023-02-28T13:21:32.094Z,98419.59
2023-02-28T13:24:03.582Z,98414.81
2023-02-28T13:26:39.306Z,98415.59
2023-02-28T13:29:11.721Z,98420.56
2023-02-28T13:32:01.047Z,98414.63
2023-02-28T13:34:27.911Z,98414.38
2023-02-28T13:37:14.313Z,98410.56
2023-02-28T13:39:40.743Z,98414.19
2023-02-28T13:42:25.928Z,98407.34
2023-02-28T13:45:16.213Z,98412.13
2023-02-28T13:47:44.620Z,98401.19
2023-02-28T13:50:23.212Z,98408.31
2023-02-28T13:52:56.273Z,98407.13
2023-02-28T13:55:27.965Z,98396.13
2023-02-28T13:58:13.930Z,98401.88
2023-02-28T14:00:49.418Z,98402.09
2023-02-28T14:03:26.845Z,98396.91
2023-02-28T14:06:09.585Z,98392.13
2023-02-28T14:08:36.170Z,98395.22
2023-02-28T14:11:09.641Z,98393.13
2023-02-28T14:13:48.181Z,98376.56
2023-02-28T14:16:16.314Z,98385.34
2023-02-28T14:18:48.964Z,98375.09
2023-02-28T14:21:21.068Z,98377.88
2023-02-28T14:23:58.211Z,98373.84
2023-02-28T14:26:43.570Z,98371.50
2023-02-28T14:29:18.895Z,98363.94
2023-02-28T14:31:54.549Z,98358.19
2023-02-28T14:34:32.819Z,98354.84
2023-02-28T14:37:01.293Z,98363.97
2023-02-28T14:39:31.763Z,98359.25
2023-02-28T14:42:04.095Z,98354.59
2023-02-28T14:44:30.997Z,98353.00
2023-02-28T14:47:09.789Z,98364.84
2023-02-28T14:49:37.804Z,98360.66
2023-02-28T14:52:13.108Z,98361.47
2023-02-28T14:54:40.384Z,98360.34
2023-02-28T14:57:06.873Z,98359.50
2023-02-28T14:59:34.999Z,98358.19
2023-02-28T15:02:18.057Z,98359.03
2023-02-28T15:04:44.589Z,98357.78
2023-02-28T15:07:12.289Z,98366.16
2023-02-28T15:09:38.778Z,98362.09
2023-02-28T15:12:05.703Z,98365.47
2023-02-28T15:14:33.243Z,98354.69
2023-02-28T15:17:07.044Z,98357.50
2023-02-28T15:19:35.743Z,98356.69
2023-02-28T15:22:07.796Z,98359.72
2023-02-28T15:24:34.277Z,98367.22
2023-02-28T15:27:01.884Z,98361.97
2023-02-28T15:29:30.063Z,98359.22
2023-02-28T15:32:04.421Z,98359.47
2023-02-28T15:34:43.042Z,98372.75
2023-02-28T15:37:31.024Z,98375.97
2023-02-28T15:39:58.229Z,98386.16
2023-02-28T15:42:32.399Z,98380.25
2023-02-28T15:45:00.642Z,98378.44
2023-02-28T15:47:28.365Z,98376.06
2023-02-28T15:50:00.308Z,98372.72
2023-02-28T15:52:39.649Z,98369.56
2023-02-28T15:55:11.028Z,98370.91
2023-02-28T15:57:40.661Z,98374.63
2023-02-28T16:00:11.736Z,98379.00
2023-02-28T16:02:39.031Z,98373.63
2023-02-28T16:05:08.555Z,98376.09
2023-02-28T16:07:35.898Z,98371.56
2023-02-28T16:10:02.888Z,98371.69
2023-02-28T16:12:33.926Z,98378.66
2023-02-28T16:15:03.822Z,98372.13
2023-02-28T16:17:32.276Z,98380.75
2023-02-28T16:19:59.107Z,98383.25
2023-02-28T16:22:25.786Z,98374.94
2023-02-28T16:24:52.389Z,98376.50
2023-02-28T16:27:26.024Z,98374.28
2023-02-28T16:29:53.272Z,98375.72
2023-02-28T16:32:19.835Z,98373.34
2023-02-28T16:34:46.359Z,98384.09
2023-02-28T16:37:16.854Z,98385.97
2023-02-28T16:39:43.577Z,98386.41
2023-02-28T16:42:14.313Z,98382.72
2023-02-28T16:44:41.239Z,98389.53
2023-02-28T16:47:07.739Z,98391.75
2023-02-28T16:49:34.276Z,98395.19
2023-02-28T16:52:00.787Z,98396.13
2023-02-28T16:54:27.566Z,98404.56
2023-02-28T16:56:54.270Z,98405.06
2023-02-28T16:59:24.002Z,98409.44
2023-02-28T17:01:50.846Z,98407.53
2023-02-28T17:04:17.434Z,98421.94
2023-02-28T17:06:43.912Z,98420.16
2023-02-28T17:09:16.928Z,98412.59
2023-02-28T17:11:43.433Z,98422.22
2023-02-28T17:14:09.923Z,98420.75
2023-02-28T17:16:37.452Z,98423.16
2023-02-28T17:19:05.930Z,98427.38
2023-02-28T17:21:34.013Z,98433.91
2023-02-28T17:24:01.105Z,98429.59
2023-02-28T17:26:29.236Z,98430.56
2023-02-28T17:28:59.614Z,98429.94
2023-02-28T17:31:27.052Z,98434.56
2023-02-28T17:33:53.968Z,98428.75
2023-02-28T17:36:25.418Z,98438.00
2023-02-28T17:38:52.497Z,98425.50
2023-02-28T17:41:18.997Z,98427.97
2023-02-28T17:43:45.602Z,98426.13
2023-02-28T17:46:21.259Z,98427.88
2023-02-28T17:48:48.261Z,98427.88
2023-02-28T17:51:15.598Z,98428.91
2023-02-28T17:53:42.304Z,98432.50
2023-02-28T17:56:17.172Z,98431.84
2023-02-28T17:58:43.886Z,98425.41
2023-02-28T18:01:10.573Z,98425.13
2023-02-28T18:03:37.205Z,98436.88
2023-02-28T18:06:03.979Z,98432.69
2023-02-28T18:08:31.667Z,98440.84
2023-02-28T18:10:58.112Z,98444.81
2023-02-28T18:13:24.558Z,98433.50
2023-02-28T18:15:51.146Z,98439.34
2023-02-28T18:18:17.738Z,98447.84
2023-02-28T18:20:44.273Z,98445.84
2023-02-28T18:23:10.761Z,98443.25
2023-02-28T18:25:38.782Z,98447.09
2023-02-28T18:28:05.636Z,98450.03
2023-02-28T18:30:33.298Z,98450.38
2023-02-28T18:33:00.196Z,98445.88
2023-02-28T18:35:36.299Z,98449.84
2023-02-28T18:38:07.590Z,98455.19
2023-02-28T18:40:34.213Z,98458.41
2023-02-28T18:43:01.261Z,98455.19
2023-02-28T18:45:27.897Z,98470.00
2023-02-28T18:47:54.446Z,98468.88
2023-02-28T18:50:21.004Z,98471.09
2023-02-28T18:52:47.466Z,98469.53
2023-02-28T18:55:18.651Z,98467.44
2023-02-28T18:57:48.211Z,98469.09
2023-02-28T19:00:15.941Z,98473.47
2023-02-28T19:02:43.004Z,98466.34
2023-02-28T19:05:11.655Z,98473.03
2023-02-28T19:07:38.380Z,98468.84
2023-02-28T19:10:05.177Z,98475.69
2023-02-28T19:12:35.477Z,98475.78
2023-02-28T19:15:03.072Z,98479.00
2023-02-28T19:17:29.603Z,98475.44
2023-02-28T19:19:56.148Z,98477.31
2023-02-28T19:22:22.690Z,98471.13
2023-02-28T19:24:49.890Z,98476.47
2023-02-28T19:27:17.783Z,98483.50
2023-02-28T19:29:44.211Z,98476.13
2023-02-28T19:32:10.808Z,98479.13
2023-02-28T19:34:37.272Z,98472.88
2023-02-28T19:37:03.727Z,98480.34
2023-02-28T19:39:37.720Z,98474.41
2023-02-28T19:42:04.238Z,98477.56
2023-02-28T19:44:31.251Z,98479.47
2023-02-28T19:46:57.729Z,98480.56
2023-02-28T19:49:25.408Z,98484.53
2023-02-28T19:51:52.595Z,98482.22
2023-02-28T19:54:19.026Z,98485.75
2023-02-28T19:56:45.574Z,98484.72
2023-02-28T19:59:21.156Z,98478.16
2023-02-28T20:01:48.905Z,98479.28
2023-02-28T20:04:15.354Z,98476.97
2023-02-28T20:06:41.832Z,98475.09
2023-02-28T20:09:08.272Z,98475.75
2023-02-28T20:11:34.732Z,98469.94
2023-02-28T20:14:05.279Z,98474.22
2023-02-28T20:16:32.607Z,98471.81
2023-02-28T20:18:59.351Z,98468.75
2023-02-28T20:21:25.817Z,98462.72
2023-02-28T20:23:52.378Z,98461.19
2023-02-28T20:26:21.820Z,98464.78
2023-02-28T20:28:48.389Z,98469.25
2023-02-28T20:31:19.720Z,98464.47
2023-02-28T20:33:47.002Z,98469.75
2023-02-28T20:36:15.559Z,98470.09
2023-02-28T20:38:42.316Z,98469.94
2023-02-28T20:41:09.185Z,98474.66
2023-02-28T20:43:35.645Z,98464.47
2023-02-28T20:46:02.985Z,98464.97
2023-02-28T20:48:30.603Z,98458.19
2023-02-28T20:50:57.950Z,98456.22
2023-02-28T20:53:25.409Z,98461.19
2023-02-28T20:55:55.205Z,98454.94
2023-02-28T20:58:22.378Z,98459.53
2023-02-28T21:00:48.900Z,98460.22
2023-02-28T21:03:15.400Z,98461.00
2023-02-28T21:05:41.836Z,98457.66
2023-02-28T21:08:08.311Z,98459.38
2023-02-28T21:10:34.757Z,98456.72
2023-02-28T21:13:01.177Z,98452.59
2023-02-28T21:15:27.685Z,98453.97
2023-02-28T21:17:54.125Z,98457.84
2023-02-28T21:20:23.498Z,98455.34
2023-02-28T21:22:50.032Z,98451.03
2023-02-28T21:25:16.847Z,98445.41
2023-02-28T21:27:43.409Z,98450.03
2023-02-28T21:30:10.303Z,98446.59
2023-02-28T21:32:37.065Z,98443.41
2023-02-28T21:35:03.585Z,98438.88
2023-02-28T21:37:30.028Z,98438.34
2023-02-28T21:39:56.563Z,98437.63
2023-02-28T21:42:23.149Z,98438.50
2023-02-28T21:44:50.269Z,98438.00
2023-02-28T21:47:19.048Z,98432.50
2023-02-28T21:49:47.186Z,98430.28
2023-02-28T21:52:15.503Z,98426.97
2023-02-28T21:54:44.107Z,98434.56
2023-02-28T21:57:14.996Z,98432.19
2023-02-28T21:59:44.248Z,98437.84
2023-02-28T22:02:13.026Z,98446.09
2023-02-28T22:04:41.470Z,98441.63
2023-02-28T22:07:08.312Z,98441.06
2023-02-28T22:09:35.871Z,98447.63
2023-02-28T22:12:03.792Z,98445.56
2023-02-28T22:14:30.781Z,98435.09
2023-02-28T22:16:57.537Z,98441.06
2023-02-28T22:19:24.345Z,98440.91
2023-02-28T22:21:51.623Z,98435.59
2023-02-28T22:24:20.570Z,98440.91
2023-02-28T22:26:48.458Z,98443.44
2023-02-28T22:29:14.951Z,98434.69
2023-02-28T22:31:41.579Z,98436.56
2023-02-28T22:34:09.298Z,98432.16
2023-02-28T22:36:36.200Z,98422.16
2023-02-28T22:39:03.068Z,98419.06
2023-02-28T22:41:30.145Z,98423.44
2023-02-28T22:43:57.898Z,98421.66
2023-02-28T22:46:24.843Z,98412.06
2023-02-28T22:48:51.842Z,98409.31
2023-02-28T22:51:19.985Z,98406.47
2023-02-28T22:53:48.032Z,98406.97
2023-02-28T22:56:15.803Z,98407.63
2023-02-28T22:58:44.259Z,98404.44
2023-02-28T23:01:13.272Z,98403.81
2023-02-28T23:03:40.187Z,98412.22
2023-02-28T23:06:14.100Z,98406.47
2023-02-28T23:08:40.906Z,98416.69
2023-02-28T23:11:07.346Z,98412.94
2023-02-28T23:13:33.885Z,98407.06
2023-02-28T23:16:00.495Z,98413.63
2023-02-28T23:18:26.960Z,98410.34
2023-02-28T23:20:56.600Z,98419.28
2023-02-28T23:23:23.660Z,98416.88
2023-02-28T23:25:50.139Z,98405.31
2023-02-28T23:28:16.696Z,98414.16
2023-02-28T23:30:43.189Z,98416.03
2023-02-28T23:33:09.755Z,98421.69
2023-02-28T23:35:36.306Z,98427.19
2023-02-28T23:38:02.840Z,98429.34
2023-02-28T23:40:29.326Z,98431.84
2023-02-28T23:42:55.942Z,98427.88
2023-02-28T23:45:22.405Z,98421.34
2023-02-28T23:47:48.824Z,98415.16
2023-02-28T23:50:15.494Z,98407.22
2023-02-28T23:52:41.949Z,98403.00
2023-02-28T23:55:08.667Z,98412.81
2023-02-28T23:57:35.205Z,98406.78
